createdAt,value
2018-06-16T00:00:00.937Z,18.37
2018-06-16T00:00:32.150Z,18.39
2018-06-16T00:01:03.328Z,18.39
2018-06-16T00:01:34.544Z,18.37
2018-06-16T00:02:05.748Z,18.35
2018-06-16T00:02:36.928Z,18.33
2018-06-16T00:03:08.188Z,18.30
2018-06-16T00:03:39.417Z,18.28
2018-06-16T00:04:10.625Z,18.25
2018-06-16T00:04:41.801Z,18.21
2018-06-16T00:05:13.022Z,18.21
2018-06-16T00:05:44.188Z,18.20
2018-06-16T00:06:15.401Z,18.19
2018-06-16T00:06:46.584Z,18.18
2018-06-16T00:07:17.757Z,18.16
2018-06-16T00:07:48.989Z,18.17
2018-06-16T00:08:20.172Z,18.14
2018-06-16T00:08:51.377Z,18.12
2018-06-16T00:09:22.560Z,18.09
2018-06-16T00:09:53.748Z,18.08
2018-06-16T00:10:24.916Z,18.08
2018-06-16T00:10:56.989Z,18.08
2018-06-16T00:11:28.165Z,18.10
2018-06-16T00:11:59.386Z,18.11
2018-06-16T00:12:30.624Z,18.14
2018-06-16T00:13:01.813Z,18.18
2018-06-16T00:13:33.005Z,18.18
2018-06-16T00:14:04.277Z,18.21
2018-06-16T00:14:35.457Z,18.21
2018-06-16T00:15:06.629Z,18.21
2018-06-16T00:15:37.844Z,18.24
2018-06-16T00:16:09.025Z,18.24
2018-06-16T00:16:40.252Z,18.23
2018-06-16T00:17:11.496Z,18.23
2018-06-16T00:17:42.685Z,18.25
2018-06-16T00:18:13.949Z,18.23
2018-06-16T00:18:45.184Z,18.25
2018-06-16T00:19:16.368Z,18.27
2018-06-16T00:19:47.591Z,18.25
2018-06-16T00:20:18.766Z,18.24
2018-06-16T00:20:49.997Z,18.21
2018-06-16T00:21:21.185Z,18.21
2018-06-16T00:21:52.355Z,18.18
2018-06-16T00:22:23.532Z,18.17
2018-06-16T00:22:54.702Z,18.17
2018-06-16T00:23:25.962Z,18.14
2018-06-16T00:23:57.145Z,18.14
2018-06-16T00:24:28.323Z,18.14
2018-06-16T00:24:59.577Z,18.12
2018-06-16T00:25:30.819Z,18.11
2018-06-16T00:26:01.998Z,18.11
2018-06-16T00:26:33.253Z,18.10
2018-06-16T00:27:04.549Z,18.10
2018-06-16T00:27:35.725Z,18.09
2018-06-16T00:28:06.936Z,18.07
2018-06-16T00:28:38.113Z,18.06
2018-06-16T00:29:09.289Z,18.08
2018-06-16T00:29:40.527Z,18.09
2018-06-16T00:30:11.688Z,18.09
2018-06-16T00:30:42.917Z,18.09
2018-06-16T00:31:14.109Z,18.09
2018-06-16T00:31:45.377Z,18.11
2018-06-16T00:32:17.148Z,18.12
2018-06-16T00:32:48.390Z,18.16
2018-06-16T00:33:19.575Z,18.17
2018-06-16T00:33:50.752Z,18.20
2018-06-16T00:34:21.928Z,18.20
2018-06-16T00:34:53.213Z,18.19
2018-06-16T00:35:24.390Z,18.18
2018-06-16T00:35:55.607Z,18.17
2018-06-16T00:36:26.789Z,18.17
2018-06-16T00:36:57.968Z,18.17
2018-06-16T00:37:29.202Z,18.18
2018-06-16T00:38:00.439Z,18.16
2018-06-16T00:38:31.616Z,18.15
2018-06-16T00:39:02.853Z,18.15
2018-06-16T00:39:34.085Z,18.16
2018-06-16T00:40:05.307Z,18.15
2018-06-16T00:40:36.531Z,18.14
2018-06-16T00:41:07.709Z,18.13
2018-06-16T00:41:38.884Z,18.13
2018-06-16T00:42:10.097Z,18.11
2018-06-16T00:42:41.309Z,18.11
2018-06-16T00:43:12.484Z,18.11
2018-06-16T00:43:43.716Z,18.09
2018-06-16T00:44:14.989Z,18.09
2018-06-16T00:44:46.168Z,18.11
2018-06-16T00:45:17.407Z,18.09
2018-06-16T00:45:48.665Z,18.06
2018-06-16T00:46:19.848Z,18.06
2018-06-16T00:46:51.074Z,18.08
2018-06-16T00:47:22.250Z,18.09
2018-06-16T00:47:53.432Z,18.11
2018-06-16T00:48:24.654Z,18.13
2018-06-16T00:48:55.830Z,18.13
2018-06-16T00:49:27.004Z,18.14
2018-06-16T00:49:58.168Z,18.16
2018-06-16T00:50:29.408Z,18.16
2018-06-16T00:51:00.638Z,18.15
2018-06-16T00:51:31.853Z,18.16
2018-06-16T00:52:03.048Z,18.21
2018-06-16T00:52:34.232Z,18.25
2018-06-16T00:53:05.408Z,18.28
2018-06-16T00:53:36.685Z,18.27
2018-06-16T00:54:07.861Z,18.26
2018-06-16T00:54:39.123Z,18.22
2018-06-16T00:55:10.312Z,18.19
2018-06-16T00:55:41.540Z,18.17
2018-06-16T00:56:12.713Z,18.12
2018-06-16T00:56:43.938Z,18.07
2018-06-16T00:57:15.169Z,18.06
2018-06-16T00:57:46.353Z,18.02
2018-06-16T00:58:17.603Z,17.98
2018-06-16T00:58:48.836Z,17.93
2018-06-16T00:59:20.062Z,17.89
2018-06-16T00:59:51.290Z,17.87
2018-06-16T01:00:22.464Z,17.85
2018-06-16T01:00:53.633Z,17.82
2018-06-16T01:01:24.804Z,17.80
2018-06-16T01:01:55.980Z,17.79
2018-06-16T01:02:27.165Z,17.77
2018-06-16T01:02:58.347Z,17.74
2018-06-16T01:03:29.580Z,17.71
2018-06-16T01:04:00.869Z,17.65
2018-06-16T01:04:32.112Z,17.63
2018-06-16T01:05:03.305Z,17.63
2018-06-16T01:05:34.508Z,17.63
2018-06-16T01:06:05.686Z,17.62
2018-06-16T01:06:36.934Z,17.63
2018-06-16T01:07:08.127Z,17.64
2018-06-16T01:07:39.322Z,17.63
2018-06-16T01:08:10.504Z,17.65
2018-06-16T01:08:41.742Z,17.64
2018-06-16T01:09:13.015Z,17.66
2018-06-16T01:09:44.209Z,17.65
2018-06-16T01:10:15.386Z,17.66
2018-06-16T01:10:46.571Z,17.65
2018-06-16T01:11:17.744Z,17.67
2018-06-16T01:11:48.988Z,17.65
2018-06-16T01:12:20.172Z,17.65
2018-06-16T01:12:51.394Z,17.64
2018-06-16T01:13:22.577Z,17.63
2018-06-16T01:13:53.755Z,17.63
2018-06-16T01:14:24.952Z,17.62
2018-06-16T01:14:56.167Z,17.58
2018-06-16T01:15:27.412Z,17.55
2018-06-16T01:15:58.598Z,17.51
2018-06-16T01:16:29.772Z,17.51
2018-06-16T01:17:00.951Z,17.51
2018-06-16T01:17:32.120Z,17.50
2018-06-16T01:18:03.294Z,17.49
2018-06-16T01:18:34.460Z,17.45
2018-06-16T01:19:05.640Z,17.43
2018-06-16T01:19:36.848Z,17.39
2018-06-16T01:20:08.069Z,17.35
2018-06-16T01:20:39.296Z,17.33
2018-06-16T01:21:10.476Z,17.31
2018-06-16T01:21:41.653Z,17.29
2018-06-16T01:22:12.817Z,17.28
2018-06-16T01:22:44.044Z,17.26
2018-06-16T01:23:15.232Z,17.24
2018-06-16T01:23:46.396Z,17.20
2018-06-16T01:24:17.561Z,17.21
2018-06-16T01:24:48.800Z,17.19
2018-06-16T01:25:19.965Z,17.15
2018-06-16T01:25:51.163Z,17.14
2018-06-16T01:26:22.381Z,17.15
2018-06-16T01:26:53.552Z,17.13
2018-06-16T01:27:24.732Z,17.11
2018-06-16T01:27:55.896Z,17.10
2018-06-16T01:28:27.084Z,17.09
2018-06-16T01:28:58.276Z,17.08
2018-06-16T01:29:29.497Z,17.08
2018-06-16T01:30:00.723Z,17.08
2018-06-16T01:30:31.890Z,17.07
2018-06-16T01:31:03.130Z,17.06
2018-06-16T01:31:34.312Z,17.04
2018-06-16T01:32:05.476Z,17.05
2018-06-16T01:32:36.701Z,17.05
2018-06-16T01:33:07.884Z,17.05
2018-06-16T01:33:39.117Z,17.05
2018-06-16T01:34:10.372Z,17.04
2018-06-16T01:34:41.544Z,17.03
2018-06-16T01:35:12.761Z,17.03
2018-06-16T01:35:43.938Z,17.02
2018-06-16T01:36:16.296Z,17.01
2018-06-16T01:36:47.464Z,17.00
2018-06-16T01:37:18.629Z,16.98
2018-06-16T01:37:49.801Z,16.95
2018-06-16T01:38:21.013Z,16.96
2018-06-16T01:38:52.217Z,16.91
2018-06-16T01:39:23.396Z,16.87
2018-06-16T01:39:54.633Z,16.86
2018-06-16T01:40:25.862Z,16.86
2018-06-16T01:40:57.058Z,16.85
2018-06-16T01:41:28.292Z,16.86
2018-06-16T01:41:59.504Z,16.84
2018-06-16T01:42:30.704Z,16.82
2018-06-16T01:43:01.883Z,16.83
2018-06-16T01:43:33.056Z,16.84
2018-06-16T01:44:04.249Z,16.85
2018-06-16T01:44:35.466Z,16.86
2018-06-16T01:45:06.653Z,16.88
2018-06-16T01:45:37.877Z,16.87
2018-06-16T01:46:09.062Z,16.82
2018-06-16T01:46:40.231Z,16.83
2018-06-16T01:47:11.458Z,16.84
2018-06-16T01:47:42.628Z,16.84
2018-06-16T01:48:13.800Z,16.81
2018-06-16T01:48:44.978Z,16.79
2018-06-16T01:49:16.208Z,16.81
2018-06-16T01:49:47.417Z,16.79
2018-06-16T01:50:18.585Z,16.78
2018-06-16T01:50:49.820Z,16.77
2018-06-16T01:51:21.000Z,16.76
2018-06-16T01:51:52.199Z,16.74
2018-06-16T01:52:23.416Z,16.75
2018-06-16T01:52:54.592Z,16.73
2018-06-16T01:53:25.766Z,16.74
2018-06-16T01:53:56.985Z,16.73
2018-06-16T01:54:28.170Z,16.72
2018-06-16T01:54:59.712Z,16.71
2018-06-16T01:55:30.893Z,16.72
2018-06-16T01:56:02.068Z,16.73
2018-06-16T01:56:33.248Z,16.72
2018-06-16T01:57:04.424Z,16.73
2018-06-16T01:57:35.666Z,16.74
2018-06-16T01:58:06.862Z,16.71
2018-06-16T01:58:38.040Z,16.66
2018-06-16T01:59:09.257Z,16.63
2018-06-16T01:59:40.474Z,16.63
2018-06-16T02:00:11.716Z,16.64
2018-06-16T02:00:42.877Z,16.65
2018-06-16T02:01:14.040Z,16.64
2018-06-16T02:01:45.212Z,16.65
2018-06-16T02:02:16.446Z,16.66
2018-06-16T02:02:47.681Z,16.65
2018-06-16T02:03:18.916Z,16.67
2018-06-16T02:03:50.153Z,16.69
2018-06-16T02:04:21.381Z,16.70
2018-06-16T02:04:52.575Z,16.70
2018-06-16T02:05:23.752Z,16.71
2018-06-16T02:05:54.983Z,16.72
2018-06-16T02:06:26.216Z,16.72
2018-06-16T02:06:57.416Z,16.72
2018-06-16T02:07:28.576Z,16.73
2018-06-16T02:07:59.763Z,16.74
2018-06-16T02:08:31.036Z,16.74
2018-06-16T02:09:02.265Z,16.73
2018-06-16T02:09:33.501Z,16.72
2018-06-16T02:10:04.688Z,16.73
2018-06-16T02:10:35.965Z,16.74
2018-06-16T02:11:07.155Z,16.74
2018-06-16T02:11:38.378Z,16.76
2018-06-16T02:12:09.559Z,16.75
2018-06-16T02:12:40.737Z,16.75
2018-06-16T02:13:11.910Z,16.75
2018-06-16T02:13:43.175Z,16.72
2018-06-16T02:14:14.370Z,16.73
2018-06-16T02:14:45.623Z,16.74
2018-06-16T02:15:16.800Z,16.72
2018-06-16T02:15:47.970Z,16.74
2018-06-16T02:16:19.142Z,16.71
2018-06-16T02:16:50.313Z,16.72
2018-06-16T02:17:21.550Z,16.74
2018-06-16T02:17:52.781Z,16.74
2018-06-16T02:18:23.962Z,16.75
2018-06-16T02:18:55.211Z,16.75
2018-06-16T02:19:26.376Z,16.81
2018-06-16T02:19:57.602Z,16.84
2018-06-16T02:20:28.833Z,16.86
2018-06-16T02:21:00.065Z,16.87
2018-06-16T02:21:31.243Z,16.90
2018-06-16T02:22:02.452Z,16.89
2018-06-16T02:22:33.725Z,16.89
2018-06-16T02:23:04.917Z,16.86
2018-06-16T02:23:36.155Z,16.86
2018-06-16T02:24:07.377Z,16.85
2018-06-16T02:24:38.556Z,16.84
2018-06-16T02:25:09.744Z,16.84
2018-06-16T02:25:40.965Z,16.85
2018-06-16T02:26:12.147Z,16.87
2018-06-16T02:26:43.320Z,16.86
2018-06-16T02:27:14.573Z,16.85
2018-06-16T02:27:45.802Z,16.83
2018-06-16T02:28:16.968Z,16.82
2018-06-16T02:28:48.194Z,16.83
2018-06-16T02:29:19.411Z,16.82
2018-06-16T02:29:50.609Z,16.82
2018-06-16T02:30:21.829Z,16.82
2018-06-16T02:30:53.058Z,16.81
2018-06-16T02:31:24.293Z,16.80
2018-06-16T02:31:55.472Z,16.78
2018-06-16T02:32:26.761Z,16.77
2018-06-16T02:32:57.991Z,16.75
2018-06-16T02:33:29.223Z,16.74
2018-06-16T02:34:00.401Z,16.74
2018-06-16T02:34:31.633Z,16.72
2018-06-16T02:35:02.825Z,16.71
2018-06-16T02:35:34.046Z,16.71
2018-06-16T02:36:05.228Z,16.71
2018-06-16T02:36:36.464Z,16.71
2018-06-16T02:37:07.699Z,16.71
2018-06-16T02:37:38.928Z,16.71
2018-06-16T02:38:10.105Z,16.69
2018-06-16T02:38:41.269Z,16.68
2018-06-16T02:39:12.502Z,16.67
2018-06-16T02:39:43.692Z,16.68
2018-06-16T02:40:14.856Z,16.71
2018-06-16T02:40:46.025Z,16.70
2018-06-16T02:41:17.249Z,16.71
2018-06-16T02:41:48.481Z,16.71
2018-06-16T02:42:19.658Z,16.70
2018-06-16T02:42:50.892Z,16.68
2018-06-16T02:43:22.125Z,16.68
2018-06-16T02:43:53.321Z,16.66
2018-06-16T02:44:24.556Z,16.65
2018-06-16T02:44:55.786Z,16.63
2018-06-16T02:45:27.004Z,16.63
2018-06-16T02:45:58.177Z,16.62
2018-06-16T02:46:29.357Z,16.60
2018-06-16T02:47:00.530Z,16.60
2018-06-16T02:47:31.717Z,16.59
2018-06-16T02:48:02.948Z,16.59
2018-06-16T02:48:34.189Z,16.59
2018-06-16T02:49:05.382Z,16.59
2018-06-16T02:49:36.558Z,16.58
2018-06-16T02:50:07.772Z,16.58
2018-06-16T02:50:38.977Z,16.57
2018-06-16T02:51:10.144Z,16.54
2018-06-16T02:51:41.430Z,16.53
2018-06-16T02:52:12.595Z,16.56
2018-06-16T02:52:43.777Z,16.55
2018-06-16T02:53:15.047Z,16.55
2018-06-16T02:53:46.233Z,16.57
2018-06-16T02:54:17.449Z,16.60
2018-06-16T02:54:48.644Z,16.63
2018-06-16T02:55:19.882Z,16.65
2018-06-16T02:55:51.076Z,16.65
2018-06-16T02:56:22.250Z,16.66
2018-06-16T02:56:53.456Z,16.67
2018-06-16T02:57:24.682Z,16.66
2018-06-16T02:57:55.873Z,16.66
2018-06-16T02:58:27.056Z,16.64
2018-06-16T02:58:58.236Z,16.64
2018-06-16T02:59:29.414Z,16.64
2018-06-16T03:00:00.586Z,16.64
2018-06-16T03:00:31.819Z,16.64
2018-06-16T03:01:03.009Z,16.66
2018-06-16T03:01:34.289Z,16.66
2018-06-16T03:02:05.477Z,16.68
2018-06-16T03:02:36.648Z,16.70
2018-06-16T03:03:07.828Z,16.71
2018-06-16T03:03:39.033Z,16.74
2018-06-16T03:04:10.206Z,16.76
2018-06-16T03:04:41.433Z,16.81
2018-06-16T03:05:12.646Z,16.86
2018-06-16T03:05:43.812Z,16.90
2018-06-16T03:06:15.033Z,16.95
2018-06-16T03:06:46.258Z,17.00
2018-06-16T03:07:17.424Z,17.06
2018-06-16T03:07:48.630Z,17.12
2018-06-16T03:08:19.800Z,17.17
2018-06-16T03:08:50.973Z,17.24
2018-06-16T03:09:22.198Z,17.29
2018-06-16T03:09:53.474Z,17.34
2018-06-16T03:10:24.667Z,17.40
2018-06-16T03:10:55.843Z,17.47
2018-06-16T03:11:27.075Z,17.53
2018-06-16T03:11:58.253Z,17.60
2018-06-16T03:12:29.454Z,17.66
2018-06-16T03:13:00.652Z,17.73
2018-06-16T03:13:31.820Z,17.79
2018-06-16T03:14:03.053Z,17.82
2018-06-16T03:14:34.233Z,17.88
2018-06-16T03:15:05.494Z,17.91
2018-06-16T03:15:36.720Z,17.97
2018-06-16T03:16:07.892Z,18.02
2018-06-16T03:16:39.164Z,18.09
2018-06-16T03:17:10.397Z,18.14
2018-06-16T03:17:41.576Z,18.16
2018-06-16T03:18:12.770Z,18.23
2018-06-16T03:18:43.999Z,18.27
2018-06-16T03:19:15.236Z,18.29
2018-06-16T03:19:46.465Z,18.31
2018-06-16T03:20:17.656Z,18.34
2018-06-16T03:20:48.839Z,18.37
2018-06-16T03:21:20.013Z,18.39
2018-06-16T03:21:51.283Z,18.40
2018-06-16T03:22:22.452Z,18.43
2018-06-16T03:22:53.626Z,18.46
2018-06-16T03:23:24.819Z,18.51
2018-06-16T03:23:56.052Z,18.54
2018-06-16T03:24:27.241Z,18.55
2018-06-16T03:24:58.456Z,18.60
2018-06-16T03:25:30.514Z,18.65
2018-06-16T03:26:01.845Z,18.73
2018-06-16T03:26:33.010Z,18.78
2018-06-16T03:27:04.217Z,18.83
2018-06-16T03:27:35.384Z,18.86
2018-06-16T03:28:06.600Z,18.85
2018-06-16T03:28:37.868Z,18.85
2018-06-16T03:29:09.049Z,18.86
2018-06-16T03:29:40.276Z,18.85
2018-06-16T03:30:11.502Z,18.83
2018-06-16T03:30:42.732Z,18.81
2018-06-16T03:31:13.964Z,18.78
2018-06-16T03:31:45.140Z,18.74
2018-06-16T03:32:16.361Z,18.69
2018-06-16T03:32:47.570Z,18.68
2018-06-16T03:33:18.785Z,18.67
2018-06-16T03:33:49.948Z,18.67
2018-06-16T03:34:21.131Z,18.66
2018-06-16T03:34:52.301Z,18.71
2018-06-16T03:35:23.529Z,18.74
2018-06-16T03:35:54.709Z,18.80
2018-06-16T03:36:25.978Z,18.80
2018-06-16T03:36:57.158Z,18.80
2018-06-16T03:37:28.324Z,18.77
2018-06-16T03:37:59.575Z,18.75
2018-06-16T03:38:30.793Z,18.73
2018-06-16T03:39:02.018Z,18.73
2018-06-16T03:39:33.240Z,18.77
2018-06-16T03:40:04.433Z,18.78
2018-06-16T03:40:35.623Z,18.81
2018-06-16T03:41:06.838Z,18.85
2018-06-16T03:41:38.018Z,18.91
2018-06-16T03:42:09.185Z,18.97
2018-06-16T03:42:40.369Z,19.00
2018-06-16T03:43:11.622Z,19.01
2018-06-16T03:43:42.890Z,19.02
2018-06-16T03:44:14.081Z,19.02
2018-06-16T03:44:45.250Z,19.02
2018-06-16T03:45:16.416Z,19.08
2018-06-16T03:45:47.695Z,19.20
2018-06-16T03:46:18.868Z,19.34
2018-06-16T03:46:50.089Z,19.49
2018-06-16T03:47:21.321Z,19.60
2018-06-16T03:47:52.554Z,19.71
2018-06-16T03:48:23.784Z,19.78
2018-06-16T03:48:54.992Z,19.77
2018-06-16T03:49:26.212Z,19.78
2018-06-16T03:49:57.441Z,19.76
2018-06-16T03:50:28.616Z,19.70
2018-06-16T03:50:59.788Z,19.69
2018-06-16T03:51:31.008Z,19.70
2018-06-16T03:52:02.188Z,19.70
2018-06-16T03:52:33.364Z,19.73
2018-06-16T03:53:04.532Z,19.78
2018-06-16T03:53:35.728Z,19.83
2018-06-16T03:54:06.936Z,19.84
2018-06-16T03:54:38.142Z,19.85
2018-06-16T03:55:09.371Z,19.87
2018-06-16T03:55:40.573Z,19.85
2018-06-16T03:56:11.752Z,19.85
2018-06-16T03:56:42.930Z,19.86
2018-06-16T03:57:14.432Z,19.86
2018-06-16T03:57:45.665Z,19.84
2018-06-16T03:58:16.848Z,19.80
2018-06-16T03:58:48.079Z,19.78
2018-06-16T03:59:19.288Z,19.76
2018-06-16T03:59:50.609Z,19.77
2018-06-16T04:00:21.794Z,19.74
2018-06-16T04:00:53.026Z,19.71
2018-06-16T04:01:24.212Z,19.69
2018-06-16T04:01:55.446Z,19.68
2018-06-16T04:02:27.226Z,19.67
2018-06-16T04:02:58.476Z,19.65
2018-06-16T04:03:29.669Z,19.62
2018-06-16T04:04:00.885Z,19.58
2018-06-16T04:04:32.153Z,19.53
2018-06-16T04:05:03.334Z,19.49
2018-06-16T04:05:34.562Z,19.47
2018-06-16T04:06:05.744Z,19.46
2018-06-16T04:06:36.931Z,19.46
2018-06-16T04:07:08.104Z,19.46
2018-06-16T04:07:40.328Z,19.51
2018-06-16T04:08:11.606Z,19.55
2018-06-16T04:08:42.836Z,19.60
2018-06-16T04:09:14.019Z,19.67
2018-06-16T04:09:45.232Z,19.73
2018-06-16T04:10:16.408Z,19.77
2018-06-16T04:10:47.689Z,19.79
2018-06-16T04:11:18.878Z,19.81
2018-06-16T04:11:50.051Z,19.82
2018-06-16T04:12:21.228Z,19.90
2018-06-16T04:12:52.404Z,20.02
2018-06-16T04:13:23.600Z,20.09
2018-06-16T04:13:54.851Z,20.14
2018-06-16T04:14:26.049Z,20.16
2018-06-16T04:14:57.240Z,20.18
2018-06-16T04:15:28.412Z,20.18
2018-06-16T04:15:59.705Z,20.19
2018-06-16T04:16:30.884Z,20.21
2018-06-16T04:17:02.114Z,20.21
2018-06-16T04:17:33.310Z,20.18
2018-06-16T04:18:04.491Z,20.19
2018-06-16T04:18:35.784Z,20.27
2018-06-16T04:19:06.964Z,20.39
2018-06-16T04:19:38.144Z,20.47
2018-06-16T04:20:09.379Z,20.52
2018-06-16T04:20:40.584Z,20.49
2018-06-16T04:21:11.827Z,20.46
2018-06-16T04:21:43.063Z,20.45
2018-06-16T04:22:14.313Z,20.38
2018-06-16T04:22:45.592Z,20.35
2018-06-16T04:23:16.828Z,20.26
2018-06-16T04:23:48.078Z,20.19
2018-06-16T04:24:19.254Z,20.13
2018-06-16T04:24:50.449Z,20.08
2018-06-16T04:25:21.629Z,20.02
2018-06-16T04:25:52.868Z,20.02
2018-06-16T04:26:24.056Z,20.04
2018-06-16T04:26:55.242Z,20.08
2018-06-16T04:27:26.424Z,20.09
2018-06-16T04:27:57.641Z,20.12
2018-06-16T04:28:28.813Z,20.16
2018-06-16T04:29:00.036Z,20.20
2018-06-16T04:29:31.233Z,20.22
2018-06-16T04:30:02.416Z,20.21
2018-06-16T04:30:33.596Z,20.20
2018-06-16T04:31:04.801Z,20.19
2018-06-16T04:31:36.003Z,20.23
2018-06-16T04:32:07.237Z,20.23
2018-06-16T04:32:38.424Z,20.22
2018-06-16T04:33:09.678Z,20.24
2018-06-16T04:33:40.860Z,20.24
2018-06-16T04:34:12.061Z,20.26
2018-06-16T04:34:43.297Z,20.33
2018-06-16T04:35:14.508Z,20.39
2018-06-16T04:35:45.744Z,20.40
2018-06-16T04:36:16.992Z,20.41
2018-06-16T04:36:48.180Z,20.37
2018-06-16T04:37:19.408Z,20.30
2018-06-16T04:37:50.582Z,20.26
2018-06-16T04:38:21.753Z,20.24
2018-06-16T04:38:52.932Z,20.19
2018-06-16T04:39:24.112Z,20.12
2018-06-16T04:39:55.288Z,20.10
2018-06-16T04:40:26.456Z,20.08
2018-06-16T04:40:57.675Z,20.07
2018-06-16T04:41:28.921Z,20.05
2018-06-16T04:42:00.117Z,20.07
2018-06-16T04:42:31.349Z,20.11
2018-06-16T04:43:02.546Z,20.16
2018-06-16T04:43:33.773Z,20.27
2018-06-16T04:44:04.993Z,20.53
2018-06-16T04:44:36.180Z,20.78
2018-06-16T04:45:07.409Z,20.97
2018-06-16T04:45:38.728Z,21.09
2018-06-16T04:46:09.904Z,21.14
2018-06-16T04:46:41.100Z,21.15
2018-06-16T04:47:12.284Z,21.19
2018-06-16T04:47:43.505Z,21.17
2018-06-16T04:48:14.741Z,21.12
2018-06-16T04:48:45.958Z,21.05
2018-06-16T04:49:17.152Z,20.97
2018-06-16T04:49:48.385Z,20.93
2018-06-16T04:50:19.635Z,20.86
2018-06-16T04:50:50.861Z,20.79
2018-06-16T04:51:22.108Z,20.70
2018-06-16T04:51:53.342Z,20.66
2018-06-16T04:52:24.531Z,20.68
2018-06-16T04:52:55.767Z,20.70
2018-06-16T04:53:27.024Z,20.67
2018-06-16T04:53:58.206Z,20.67
2018-06-16T04:54:29.430Z,20.67
2018-06-16T04:55:00.618Z,20.66
2018-06-16T04:55:31.886Z,20.67
2018-06-16T04:56:03.118Z,20.62
2018-06-16T04:56:34.365Z,20.60
2018-06-16T04:57:05.566Z,20.60
2018-06-16T04:57:36.753Z,20.58
2018-06-16T04:58:07.992Z,20.56
2018-06-16T04:58:39.176Z,20.51
2018-06-16T04:59:10.854Z,20.50
2018-06-16T04:59:42.036Z,20.49
2018-06-16T05:00:13.309Z,20.66
2018-06-16T05:00:44.494Z,20.80
2018-06-16T05:01:15.677Z,20.91
2018-06-16T05:01:46.852Z,21.00
2018-06-16T05:02:18.032Z,21.08
2018-06-16T05:02:49.214Z,21.12
2018-06-16T05:03:20.392Z,21.12
2018-06-16T05:03:51.589Z,21.06
2018-06-16T05:04:22.820Z,21.06
2018-06-16T05:04:54.065Z,21.07
2018-06-16T05:05:25.353Z,21.08
2018-06-16T05:05:56.548Z,21.08
2018-06-16T05:06:27.768Z,21.06
2018-06-16T05:06:58.952Z,21.05
2018-06-16T05:07:30.188Z,21.00
2018-06-16T05:08:01.381Z,20.97
2018-06-16T05:08:32.631Z,20.93
2018-06-16T05:09:03.861Z,20.89
2018-06-16T05:09:35.044Z,20.88
2018-06-16T05:10:06.224Z,20.81
2018-06-16T05:10:37.416Z,20.70
2018-06-16T05:11:08.700Z,20.55
2018-06-16T05:11:39.963Z,20.46
2018-06-16T05:12:11.193Z,20.42
2018-06-16T05:12:42.430Z,20.47
2018-06-16T05:13:13.613Z,20.48
2018-06-16T05:13:44.792Z,20.55
2018-06-16T05:14:16.052Z,20.60
2018-06-16T05:14:47.250Z,20.64
2018-06-16T05:15:18.421Z,20.65
2018-06-16T05:15:49.602Z,20.71
2018-06-16T05:16:20.781Z,20.84
2018-06-16T05:16:52.069Z,21.05
2018-06-16T05:17:23.228Z,21.19
2018-06-16T05:17:54.416Z,21.35
2018-06-16T05:18:25.597Z,21.47
2018-06-16T05:18:56.786Z,21.56
2018-06-16T05:19:28.024Z,21.56
2018-06-16T05:19:59.268Z,21.54
2018-06-16T05:20:30.514Z,21.57
2018-06-16T05:21:01.697Z,21.67
2018-06-16T05:21:32.893Z,21.76
2018-06-16T05:22:04.123Z,21.83
2018-06-16T05:22:35.304Z,21.88
2018-06-16T05:23:06.476Z,21.95
2018-06-16T05:23:37.655Z,22.01
2018-06-16T05:24:08.855Z,22.14
2018-06-16T05:24:40.092Z,22.39
2018-06-16T05:25:11.264Z,22.75
2018-06-16T05:25:42.494Z,23.20
2018-06-16T05:26:13.721Z,23.71
2018-06-16T05:26:44.952Z,24.28
2018-06-16T05:27:16.177Z,24.77
2018-06-16T05:27:47.365Z,25.25
2018-06-16T05:28:18.574Z,25.62
2018-06-16T05:28:49.756Z,25.98
2018-06-16T05:29:20.925Z,26.28
2018-06-16T05:29:52.120Z,26.46
2018-06-16T05:30:23.297Z,26.54
2018-06-16T05:30:54.480Z,26.57
2018-06-16T05:31:25.704Z,26.47
2018-06-16T05:31:56.932Z,26.44
2018-06-16T05:32:28.124Z,26.44
2018-06-16T05:32:59.300Z,26.49
2018-06-16T05:33:30.472Z,26.54
2018-06-16T05:34:01.646Z,26.56
2018-06-16T05:34:32.823Z,26.65
2018-06-16T05:35:04.044Z,26.76
2018-06-16T05:35:35.234Z,26.72
2018-06-16T05:36:06.413Z,26.60
2018-06-16T05:36:37.594Z,26.46
2018-06-16T05:37:08.810Z,26.31
2018-06-16T05:37:40.037Z,26.09
2018-06-16T05:38:11.215Z,25.93
2018-06-16T05:38:42.388Z,25.74
2018-06-16T05:39:13.576Z,25.62
2018-06-16T05:39:44.752Z,25.52
2018-06-16T05:40:15.946Z,25.39
2018-06-16T05:40:47.120Z,25.28
2018-06-16T05:41:18.343Z,25.13
2018-06-16T05:41:49.584Z,25.03
2018-06-16T05:42:20.876Z,24.87
2018-06-16T05:42:52.117Z,24.75
2018-06-16T05:43:23.345Z,24.79
2018-06-16T05:43:54.588Z,25.06
2018-06-16T05:44:25.845Z,25.36
2018-06-16T05:44:57.056Z,25.63
2018-06-16T05:45:28.241Z,25.86
2018-06-16T05:45:59.407Z,26.15
2018-06-16T05:46:30.630Z,26.46
2018-06-16T05:47:01.829Z,26.50
2018-06-16T05:47:33.125Z,26.52
2018-06-16T05:48:04.336Z,26.52
2018-06-16T05:48:35.560Z,26.54
2018-06-16T05:49:06.729Z,26.48
2018-06-16T05:49:37.897Z,26.44
2018-06-16T05:50:09.197Z,26.45
2018-06-16T05:50:40.385Z,26.45
2018-06-16T05:51:11.607Z,26.38
2018-06-16T05:51:42.793Z,26.33
2018-06-16T05:52:13.978Z,26.29
2018-06-16T05:52:45.193Z,26.18
2018-06-16T05:53:16.366Z,26.12
2018-06-16T05:53:47.580Z,26.07
2018-06-16T05:54:18.784Z,26.06
2018-06-16T05:54:49.972Z,26.10
2018-06-16T05:55:21.198Z,26.00
2018-06-16T05:55:52.376Z,25.97
2018-06-16T05:56:23.557Z,26.03
2018-06-16T05:56:54.742Z,26.12
2018-06-16T05:57:25.929Z,26.00
2018-06-16T05:57:57.191Z,25.86
2018-06-16T05:58:28.362Z,25.78
2018-06-16T05:58:59.597Z,25.76
2018-06-16T05:59:30.829Z,25.78
2018-06-16T06:00:02.070Z,25.82
2018-06-16T06:00:33.285Z,25.88
2018-06-16T06:01:04.456Z,25.92
2018-06-16T06:01:35.636Z,25.84
2018-06-16T06:02:06.872Z,25.97
2018-06-16T06:02:38.052Z,26.04
2018-06-16T06:03:09.238Z,26.03
2018-06-16T06:03:40.468Z,26.04
2018-06-16T06:04:11.741Z,26.10
2018-06-16T06:04:42.985Z,26.17
2018-06-16T06:05:14.177Z,26.29
2018-06-16T06:05:45.368Z,26.35
2018-06-16T06:06:16.601Z,26.38
2018-06-16T06:06:47.913Z,26.28
2018-06-16T06:07:19.154Z,26.19
2018-06-16T06:07:50.367Z,26.14
2018-06-16T06:08:21.574Z,26.07
2018-06-16T06:08:52.756Z,26.16
2018-06-16T06:09:23.937Z,26.16
2018-06-16T06:09:55.165Z,26.24
2018-06-16T06:10:26.607Z,26.28
2018-06-16T06:10:57.823Z,26.33
2018-06-16T06:11:29.040Z,26.45
2018-06-16T06:12:00.281Z,26.52
2018-06-16T06:12:31.464Z,26.58
2018-06-16T06:13:02.682Z,26.53
2018-06-16T06:13:33.877Z,26.56
2018-06-16T06:14:05.055Z,26.54
2018-06-16T06:14:36.230Z,26.57
2018-06-16T06:15:07.414Z,26.47
2018-06-16T06:15:38.600Z,26.44
2018-06-16T06:16:09.825Z,26.48
2018-06-16T06:16:41.029Z,26.56
2018-06-16T06:17:12.308Z,26.57
2018-06-16T06:17:43.546Z,26.59
2018-06-16T06:18:14.741Z,26.54
2018-06-16T06:18:46.012Z,26.58
2018-06-16T06:19:17.221Z,26.64
2018-06-16T06:19:48.402Z,26.68
2018-06-16T06:20:19.580Z,26.64
2018-06-16T06:20:50.757Z,26.62
2018-06-16T06:21:21.981Z,26.64
2018-06-16T06:21:53.217Z,26.55
2018-06-16T06:22:24.492Z,26.53
2018-06-16T06:22:55.726Z,26.24
2018-06-16T06:23:26.919Z,26.07
2018-06-16T06:23:58.105Z,25.88
2018-06-16T06:24:29.341Z,25.64
2018-06-16T06:25:00.528Z,25.45
2018-06-16T06:25:31.713Z,25.28
2018-06-16T06:26:02.901Z,25.25
2018-06-16T06:26:34.141Z,25.13
2018-06-16T06:27:05.378Z,25.12
2018-06-16T06:27:36.617Z,25.07
2018-06-16T06:28:07.863Z,25.13
2018-06-16T06:28:39.054Z,25.12
2018-06-16T06:29:10.302Z,25.17
2018-06-16T06:29:41.792Z,25.26
2018-06-16T06:30:13.028Z,25.33
2018-06-16T06:30:44.321Z,25.37
2018-06-16T06:31:15.554Z,25.44
2018-06-16T06:31:46.741Z,25.56
2018-06-16T06:32:17.994Z,25.64
2018-06-16T06:32:49.216Z,25.67
2018-06-16T06:33:20.400Z,25.63
2018-06-16T06:33:51.637Z,25.55
2018-06-16T06:34:22.826Z,25.43
2018-06-16T06:34:54.052Z,25.30
2018-06-16T06:35:25.234Z,25.24
2018-06-16T06:35:56.440Z,25.19
2018-06-16T06:36:27.616Z,25.19
2018-06-16T06:36:58.860Z,25.17
2018-06-16T06:37:30.096Z,25.28
2018-06-16T06:38:01.334Z,25.30
2018-06-16T06:38:32.580Z,25.36
2018-06-16T06:39:03.773Z,25.50
2018-06-16T06:39:34.953Z,25.51
2018-06-16T06:40:06.227Z,25.53
2018-06-16T06:40:37.412Z,25.51
2018-06-16T06:41:08.609Z,25.56
2018-06-16T06:41:39.793Z,25.60